sensor_id;sensor_type;location;lat;lon;timestamp;temperature;humidity
21540;DHT22;10931;52.164;5.518;2023-02-02T00:02:20;18.20;62.00
21540;DHT22;10931;52.164;5.518;2023-02-02T00:04:46;18.20;61.90
21540;DHT22;10931;52.164;5.518;2023-02-02T00:07:25;18.10;61.90
21540;DHT22;10931;52.164;5.518;2023-02-02T00:09:51;18.20;62.00
21540;DHT22;10931;52.164;5.518;2023-02-02T00:12:17;18.10;61.90
21540;DHT22;10931;52.164;5.518;2023-02-02T00:14:50;18.10;61.90
21540;DHT22;10931;52.164;5.518;2023-02-02T00:17:15;18.10;62.00
21540;DHT22;10931;52.164;5.518;2023-02-02T00:23:08;18.10;62.10
21540;DHT22;10931;52.164;5.518;2023-02-02T00:25:35;18.10;62.10
21540;DHT22;10931;52.164;5.518;2023-02-02T00:28:03;18.10;62.10
21540;DHT22;10931;52.164;5.518;2023-02-02T00:30:34;18.10;62.10
21540;DHT22;10931;52.164;5.518;2023-02-02T00:33:04;18.10;62.10
21540;DHT22;10931;52.164;5.518;2023-02-02T00:35:30;18.10;62.90
21540;DHT22;10931;52.164;5.518;2023-02-02T00:37:58;18.10;62.10
21540;DHT22;10931;52.164;5.518;2023-02-02T00:40:24;18.00;62.00
21540;DHT22;10931;52.164;5.518;2023-02-02T00:43:03;18.10;62.20
21540;DHT22;10931;52.164;5.518;2023-02-02T00:45:29;18.00;62.10
21540;DHT22;10931;52.164;5.518;2023-02-02T00:47:59;18.00;62.10
21540;DHT22;10931;52.164;5.518;2023-02-02T00:50:33;18.00;62.10
21540;DHT22;10931;52.164;5.518;2023-02-02T00:52:59;18.10;62.20
21540;DHT22;10931;52.164;5.518;2023-02-02T00:55:25;18.00;62.10
21540;DHT22;10931;52.164;5.518;2023-02-02T00:57:52;18.00;62.10
21540;DHT22;10931;52.164;5.518;2023-02-02T01:00:20;18.00;62.20
21540;DHT22;10931;52.164;5.518;2023-02-02T01:02:59;18.00;62.20
21540;DHT22;10931;52.164;5.518;2023-02-02T01:05:38;18.00;62.20
21540;DHT22;10931;52.164;5.518;2023-02-02T01:08:28;18.00;62.20
21540;DHT22;10931;52.164;5.518;2023-02-02T01:11:00;18.00;62.20
21540;DHT22;10931;52.164;5.518;2023-02-02T01:13:35;18.00;62.20
21540;DHT22;10931;52.164;5.518;2023-02-02T01:16:02;18.00;62.20
21540;DHT22;10931;52.164;5.518;2023-02-02T01:18:30;17.90;62.20
21540;DHT22;10931;52.164;5.518;2023-02-02T01:21:07;18.00;62.20
21540;DHT22;10931;52.164;5.518;2023-02-02T01:23:40;17.90;62.20
21540;DHT22;10931;52.164;5.518;2023-02-02T01:26:09;17.90;62.20
21540;DHT22;10931;52.164;5.518;2023-02-02T01:28:43;17.90;62.20
21540;DHT22;10931;52.164;5.518;2023-02-02T01:31:17;17.90;62.20
21540;DHT22;10931;52.164;5.518;2023-02-02T01:33:45;17.90;62.40
21540;DHT22;10931;52.164;5.518;2023-02-02T01:36:17;17.90;62.20
21540;DHT22;10931;52.164;5.518;2023-02-02T01:38:46;17.90;62.30
21540;DHT22;10931;52.164;5.518;2023-02-02T01:41:18;17.90;62.30
21540;DHT22;10931;52.164;5.518;2023-02-02T01:46:15;17.90;62.30
21540;DHT22;10931;52.164;5.518;2023-02-02T01:48:58;17.90;62.30
21540;DHT22;10931;52.164;5.518;2023-02-02T01:51:43;17.90;62.30
21540;DHT22;10931;52.164;5.518;2023-02-02T01:54:40;17.90;62.40
21540;DHT22;10931;52.164;5.518;2023-02-02T01:57:13;17.90;62.30
21540;DHT22;10931;52.164;5.518;2023-02-02T01:59:42;17.90;62.40
21540;DHT22;10931;52.164;5.518;2023-02-02T02:02:14;17.80;62.30
21540;DHT22;10931;52.164;5.518;2023-02-02T02:04:47;17.80;62.30
21540;DHT22;10931;52.164;5.518;2023-02-02T02:07:14;17.80;62.30
21540;DHT22;10931;52.164;5.518;2023-02-02T02:09:40;17.80;62.30
21540;DHT22;10931;52.164;5.518;2023-02-02T02:12:10;17.80;62.30
21540;DHT22;10931;52.164;5.518;2023-02-02T02:14:39;17.80;62.40
21540;DHT22;10931;52.164;5.518;2023-02-02T02:32:33;17.80;62.50
21540;DHT22;10931;52.164;5.518;2023-02-02T02:38:58;17.70;62.40
21540;DHT22;10931;52.164;5.518;2023-02-02T02:41:01;17.80;63.30
21540;DHT22;10931;52.164;5.518;2023-02-02T02:43:54;17.70;62.40
21540;DHT22;10931;52.164;5.518;2023-02-02T02:46:21;17.70;62.40
21540;DHT22;10931;52.164;5.518;2023-02-02T02:48:48;17.70;62.40
21540;DHT22;10931;52.164;5.518;2023-02-02T02:51:47;17.70;62.40
21540;DHT22;10931;52.164;5.518;2023-02-02T03:03:00;17.70;62.50
21540;DHT22;10931;52.164;5.518;2023-02-02T03:09:20;17.70;62.50
21540;DHT22;10931;52.164;5.518;2023-02-02T03:11:48;17.70;62.50
21540;DHT22;10931;52.164;5.518;2023-02-02T03:14:16;17.60;62.50
21540;DHT22;10931;52.164;5.518;2023-02-02T03:16:42;17.60;62.90
21540;DHT22;10931;52.164;5.518;2023-02-02T03:19:10;17.60;62.50
21540;DHT22;10931;52.164;5.518;2023-02-02T03:21:36;17.70;62.50
21540;DHT22;10931;52.164;5.518;2023-02-02T03:24:03;17.60;62.50
21540;DHT22;10931;52.164;5.518;2023-02-02T03:26:44;17.60;62.50
21540;DHT22;10931;52.164;5.518;2023-02-02T03:29:10;17.60;62.50
21540;DHT22;10931;52.164;5.518;2023-02-02T03:31:36;17.60;62.50
21540;DHT22;10931;52.164;5.518;2023-02-02T03:34:02;17.60;62.50
21540;DHT22;10931;52.164;5.518;2023-02-02T03:36:27;17.60;62.50
21540;DHT22;10931;52.164;5.518;2023-02-02T03:39:12;17.60;62.50
21540;DHT22;10931;52.164;5.518;2023-02-02T03:41:53;17.60;62.60
21540;DHT22;10931;52.164;5.518;2023-02-02T03:44:24;17.60;62.60
21540;DHT22;10931;52.164;5.518;2023-02-02T03:46:58;17.60;62.60
21540;DHT22;10931;52.164;5.518;2023-02-02T03:49:32;17.60;62.60
21540;DHT22;10931;52.164;5.518;2023-02-02T03:51:58;17.60;62.60
21540;DHT22;10931;52.164;5.518;2023-02-02T03:54:25;17.60;62.60
21540;DHT22;10931;52.164;5.518;2023-02-02T03:56:50;17.60;62.60
21540;DHT22;10931;52.164;5.518;2023-02-02T03:59:18;17.50;62.50
21540;DHT22;10931;52.164;5.518;2023-02-02T04:01:44;17.50;62.50
21540;DHT22;10931;52.164;5.518;2023-02-02T04:04:13;17.50;62.50
21540;DHT22;10931;52.164;5.518;2023-02-02T04:06:41;17.60;62.60
21540;DHT22;10931;52.164;5.518;2023-02-02T04:09:07;17.50;62.50
21540;DHT22;10931;52.164;5.518;2023-02-02T04:11:33;17.50;62.50
21540;DHT22;10931;52.164;5.518;2023-02-02T04:14:06;17.50;62.60
21540;DHT22;10931;52.164;5.518;2023-02-02T04:16:36;17.50;62.60
21540;DHT22;10931;52.164;5.518;2023-02-02T04:19:05;17.50;62.60
21540;DHT22;10931;52.164;5.518;2023-02-02T04:21:31;17.50;62.60
21540;DHT22;10931;52.164;5.518;2023-02-02T04:23:57;17.50;62.60
21540;DHT22;10931;52.164;5.518;2023-02-02T04:26:23;17.50;62.60
21540;DHT22;10931;52.164;5.518;2023-02-02T04:28:51;17.50;62.60
21540;DHT22;10931;52.164;5.518;2023-02-02T04:31:17;17.50;62.60
21540;DHT22;10931;52.164;5.518;2023-02-02T04:33:50;17.50;62.60
21540;DHT22;10931;52.164;5.518;2023-02-02T04:36:23;17.50;62.60
21540;DHT22;10931;52.164;5.518;2023-02-02T04:38:52;17.50;62.70
21540;DHT22;10931;52.164;5.518;2023-02-02T04:41:20;17.50;62.60
21540;DHT22;10931;52.164;5.518;2023-02-02T04:43:50;17.50;62.70
21540;DHT22;10931;52.164;5.518;2023-02-02T04:46:19;17.50;62.70
21540;DHT22;10931;52.164;5.518;2023-02-02T04:48:47;17.50;62.70
21540;DHT22;10931;52.164;5.518;2023-02-02T04:51:23;17.40;62.60
21540;DHT22;10931;52.164;5.518;2023-02-02T04:53:55;17.40;62.60
21540;DHT22;10931;52.164;5.518;2023-02-02T04:56:21;17.50;62.70
21540;DHT22;10931;52.164;5.518;2023-02-02T04:58:47;17.40;62.60
21540;DHT22;10931;52.164;5.518;2023-02-02T05:01:17;17.40;62.60
21540;DHT22;10931;52.164;5.518;2023-02-02T05:03:47;17.40;62.60
21540;DHT22;10931;52.164;5.518;2023-02-02T05:06:13;17.40;62.60
21540;DHT22;10931;52.164;5.518;2023-02-02T05:08:39;17.40;62.60
21540;DHT22;10931;52.164;5.518;2023-02-02T05:11:15;17.40;62.60
21540;DHT22;10931;52.164;5.518;2023-02-02T05:14:03;17.40;62.60
21540;DHT22;10931;52.164;5.518;2023-02-02T05:16:34;17.40;62.60
21540;DHT22;10931;52.164;5.518;2023-02-02T05:18:59;17.40;62.60
21540;DHT22;10931;52.164;5.518;2023-02-02T05:21:25;17.40;62.60
21540;DHT22;10931;52.164;5.518;2023-02-02T05:24:08;17.40;62.70
21540;DHT22;10931;52.164;5.518;2023-02-02T05:26:33;17.40;62.70
21540;DHT22;10931;52.164;5.518;2023-02-02T05:28:59;17.40;62.70
21540;DHT22;10931;52.164;5.518;2023-02-02T05:31:25;17.40;62.70
21540;DHT22;10931;52.164;5.518;2023-02-02T05:33:51;17.30;62.60
21540;DHT22;10931;52.164;5.518;2023-02-02T05:36:20;17.40;63.50
21540;DHT22;10931;52.164;5.518;2023-02-02T05:38:46;17.40;62.70
21540;DHT22;10931;52.164;5.518;2023-02-02T05:41:11;17.30;62.70
21540;DHT22;10931;52.164;5.518;2023-02-02T05:43:52;17.40;62.80
21540;DHT22;10931;52.164;5.518;2023-02-02T05:46:18;17.30;62.70
21540;DHT22;10931;52.164;5.518;2023-02-02T05:48:52;17.30;62.70
21540;DHT22;10931;52.164;5.518;2023-02-02T05:51:36;17.30;62.80
21540;DHT22;10931;52.164;5.518;2023-02-02T05:54:03;17.30;62.80
21540;DHT22;10931;52.164;5.518;2023-02-02T05:56:29;17.30;62.70
21540;DHT22;10931;52.164;5.518;2023-02-02T05:58:55;17.30;62.80
21540;DHT22;10931;52.164;5.518;2023-02-02T06:01:21;17.30;62.80
21540;DHT22;10931;52.164;5.518;2023-02-02T06:03:48;17.30;62.80
21540;DHT22;10931;52.164;5.518;2023-02-02T06:06:15;17.30;62.80
21540;DHT22;10931;52.164;5.518;2023-02-02T06:08:41;17.30;62.80
21540;DHT22;10931;52.164;5.518;2023-02-02T06:11:16;17.30;62.80
21540;DHT22;10931;52.164;5.518;2023-02-02T06:13:42;17.30;62.80
21540;DHT22;10931;52.164;5.518;2023-02-02T06:16:08;17.30;62.80
21540;DHT22;10931;52.164;5.518;2023-02-02T06:18:35;17.30;62.80
21540;DHT22;10931;52.164;5.518;2023-02-02T06:21:02;17.30;62.80
21540;DHT22;10931;52.164;5.518;2023-02-02T06:23:35;17.30;62.80
21540;DHT22;10931;52.164;5.518;2023-02-02T06:26:04;17.20;62.80
21540;DHT22;10931;52.164;5.518;2023-02-02T06:28:32;17.30;62.80
21540;DHT22;10931;52.164;5.518;2023-02-02T06:31:06;17.30;62.90
21540;DHT22;10931;52.164;5.518;2023-02-02T06:33:43;17.20;62.80
21540;DHT22;10931;52.164;5.518;2023-02-02T06:36:15;17.30;62.90
21540;DHT22;10931;52.164;5.518;2023-02-02T06:38:41;17.20;62.80
21540;DHT22;10931;52.164;5.518;2023-02-02T06:41:09;17.20;62.90
21540;DHT22;10931;52.164;5.518;2023-02-02T06:43:38;17.20;62.80
21540;DHT22;10931;52.164;5.518;2023-02-02T06:46:07;17.20;62.80
21540;DHT22;10931;52.164;5.518;2023-02-02T06:48:41;17.20;62.90
21540;DHT22;10931;52.164;5.518;2023-02-02T06:51:07;17.20;62.90
21540;DHT22;10931;52.164;5.518;2023-02-02T06:53:34;17.20;62.90
21540;DHT22;10931;52.164;5.518;2023-02-02T06:56:05;17.20;62.90
21540;DHT22;10931;52.164;5.518;2023-02-02T06:58:32;17.20;62.90
21540;DHT22;10931;52.164;5.518;2023-02-02T07:01:12;17.20;62.90
21540;DHT22;10931;52.164;5.518;2023-02-02T07:04:02;17.20;62.90
21540;DHT22;10931;52.164;5.518;2023-02-02T07:06:32;17.20;62.90
21540;DHT22;10931;52.164;5.518;2023-02-02T07:09:03;17.20;62.90
21540;DHT22;10931;52.164;5.518;2023-02-02T07:11:33;17.20;62.90
21540;DHT22;10931;52.164;5.518;2023-02-02T07:14:02;17.20;62.90
21540;DHT22;10931;52.164;5.518;2023-02-02T07:16:29;17.20;62.90
21540;DHT22;10931;52.164;5.518;2023-02-02T07:19:00;17.10;62.90
21540;DHT22;10931;52.164;5.518;2023-02-02T07:21:26;17.10;62.90
21540;DHT22;10931;52.164;5.518;2023-02-02T07:24:12;17.20;62.90
21540;DHT22;10931;52.164;5.518;2023-02-02T07:26:41;17.20;62.90
21540;DHT22;10931;52.164;5.518;2023-02-02T07:29:16;17.20;63.00
21540;DHT22;10931;52.164;5.518;2023-02-02T07:31:47;17.20;63.00
21540;DHT22;10931;52.164;5.518;2023-02-02T07:34:12;17.10;62.90
21540;DHT22;10931;52.164;5.518;2023-02-02T07:37:11;17.10;62.90
21540;DHT22;10931;52.164;5.518;2023-02-02T07:39:37;17.20;63.00
21540;DHT22;10931;52.164;5.518;2023-02-02T07:42:04;17.20;63.00
21540;DHT22;10931;52.164;5.518;2023-02-02T07:44:47;17.10;63.00
21540;DHT22;10931;52.164;5.518;2023-02-02T07:47:13;17.10;63.00
21540;DHT22;10931;52.164;5.518;2023-02-02T07:50:04;17.10;63.00
21540;DHT22;10931;52.164;5.518;2023-02-02T07:52:41;17.10;63.10
21540;DHT22;10931;52.164;5.518;2023-02-02T07:55:15;17.10;63.00
21540;DHT22;10931;52.164;5.518;2023-02-02T07:57:41;17.10;63.10
21540;DHT22;10931;52.164;5.518;2023-02-02T08:00:12;17.10;63.10
21540;DHT22;10931;52.164;5.518;2023-02-02T08:03:04;17.10;63.00
21540;DHT22;10931;52.164;5.518;2023-02-02T08:05:30;17.10;63.10
21540;DHT22;10931;52.164;5.518;2023-02-02T08:08:16;17.10;63.10
21540;DHT22;10931;52.164;5.518;2023-02-02T08:10:51;17.10;63.10
21540;DHT22;10931;52.164;5.518;2023-02-02T08:13:18;17.10;63.10
21540;DHT22;10931;52.164;5.518;2023-02-02T08:16:09;17.10;63.10
21540;DHT22;10931;52.164;5.518;2023-02-02T08:18:35;17.00;63.00
21540;DHT22;10931;52.164;5.518;2023-02-02T08:24:34;17.10;63.10
21540;DHT22;10931;52.164;5.518;2023-02-02T08:27:14;17.10;63.10
21540;DHT22;10931;52.164;5.518;2023-02-02T08:38:59;17.00;63.10
21540;DHT22;10931;52.164;5.518;2023-02-02T08:41:34;17.00;63.10
21540;DHT22;10931;52.164;5.518;2023-02-02T08:44:23;17.00;63.10
21540;DHT22;10931;52.164;5.518;2023-02-02T08:50:13;17.00;63.10
21540;DHT22;10931;52.164;5.518;2023-02-02T08:52:58;17.00;63.10
21540;DHT22;10931;52.164;5.518;2023-02-02T08:55:59;17.00;63.10
21540;DHT22;10931;52.164;5.518;2023-02-02T08:58:34;17.00;63.10
21540;DHT22;10931;52.164;5.518;2023-02-02T09:05:11;17.00;63.10
21540;DHT22;10931;52.164;5.518;2023-02-02T09:07:44;17.00;63.20
21540;DHT22;10931;52.164;5.518;2023-02-02T09:10:34;17.00;63.20
21540;DHT22;10931;52.164;5.518;2023-02-02T09:13:05;17.00;63.20
21540;DHT22;10931;52.164;5.518;2023-02-02T09:15:48;17.00;63.20
21540;DHT22;10931;52.164;5.518;2023-02-02T09:18:26;17.00;63.20
21540;DHT22;10931;52.164;5.518;2023-02-02T09:21:02;17.00;63.20
21540;DHT22;10931;52.164;5.518;2023-02-02T09:23:48;17.00;63.20
21540;DHT22;10931;52.164;5.518;2023-02-02T09:26:29;17.00;63.20
21540;DHT22;10931;52.164;5.518;2023-02-02T09:28:57;17.00;63.20
21540;DHT22;10931;52.164;5.518;2023-02-02T09:31:35;17.00;63.20
21540;DHT22;10931;52.164;5.518;2023-02-02T09:34:03;17.00;63.40
21540;DHT22;10931;52.164;5.518;2023-02-02T09:36:32;17.00;63.30
21540;DHT22;10931;52.164;5.518;2023-02-02T09:39:01;17.00;63.30
21540;DHT22;10931;52.164;5.518;2023-02-02T09:47:21;17.00;63.30
21540;DHT22;10931;52.164;5.518;2023-02-02T09:52:50;17.00;63.30
21540;DHT22;10931;52.164;5.518;2023-02-02T09:55:34;17.00;63.40
21540;DHT22;10931;52.164;5.518;2023-02-02T10:01:10;17.00;63.40
21540;DHT22;10931;52.164;5.518;2023-02-02T10:15:39;17.00;63.50
21540;DHT22;10931;52.164;5.518;2023-02-02T10:23:54;17.00;63.50
21540;DHT22;10931;52.164;5.518;2023-02-02T10:26:38;17.00;63.50
21540;DHT22;10931;52.164;5.518;2023-02-02T10:41:13;17.00;63.50
21540;DHT22;10931;52.164;5.518;2023-02-02T10:46:33;17.00;63.60
21540;DHT22;10931;52.164;5.518;2023-02-02T10:49:28;17.00;63.60
21540;DHT22;10931;52.164;5.518;2023-02-02T10:52:21;17.00;63.60
21540;DHT22;10931;52.164;5.518;2023-02-02T10:55:13;17.00;63.60
21540;DHT22;10931;52.164;5.518;2023-02-02T11:00:55;17.00;63.70
21540;DHT22;10931;52.164;5.518;2023-02-02T11:03:41;17.00;63.70
21540;DHT22;10931;52.164;5.518;2023-02-02T11:06:07;17.00;63.70
21540;DHT22;10931;52.164;5.518;2023-02-02T11:08:56;17.00;63.70
21540;DHT22;10931;52.164;5.518;2023-02-02T11:11:38;17.10;64.00
21540;DHT22;10931;52.164;5.518;2023-02-02T11:14:35;17.10;64.00
21540;DHT22;10931;52.164;5.518;2023-02-02T11:17:16;17.20;64.30
21540;DHT22;10931;52.164;5.518;2023-02-02T11:19:54;17.30;64.40
21540;DHT22;10931;52.164;5.518;2023-02-02T11:22:42;17.30;64.40
21540;DHT22;10931;52.164;5.518;2023-02-02T11:25:42;17.40;64.60
21540;DHT22;10931;52.164;5.518;2023-02-02T11:31:35;17.60;64.70
21540;DHT22;10931;52.164;5.518;2023-02-02T11:34:16;17.70;64.80
21540;DHT22;10931;52.164;5.518;2023-02-02T11:39:41;18.00;64.90
21540;DHT22;10931;52.164;5.518;2023-02-02T11:42:29;18.10;64.90
21540;DHT22;10931;52.164;5.518;2023-02-02T11:44:58;18.20;64.90
21540;DHT22;10931;52.164;5.518;2023-02-02T11:47:41;18.30;64.90
21540;DHT22;10931;52.164;5.518;2023-02-02T11:50:31;18.40;64.90
21540;DHT22;10931;52.164;5.518;2023-02-02T11:53:02;18.50;64.90
21540;DHT22;10931;52.164;5.518;2023-02-02T11:55:30;18.60;64.80
21540;DHT22;10931;52.164;5.518;2023-02-02T12:01:30;18.80;64.70
21540;DHT22;10931;52.164;5.518;2023-02-02T12:04:31;18.90;64.70
21540;DHT22;10931;52.164;5.518;2023-02-02T12:07:12;19.00;64.60
21540;DHT22;10931;52.164;5.518;2023-02-02T12:13:15;19.20;64.50
21540;DHT22;10931;52.164;5.518;2023-02-02T12:19:08;19.50;64.50
21540;DHT22;10931;52.164;5.518;2023-02-02T12:28:04;19.80;64.20
21540;DHT22;10931;52.164;5.518;2023-02-02T12:40:20;20.20;64.00
21540;DHT22;10931;52.164;5.518;2023-02-02T12:46:20;20.40;63.90
21540;DHT22;10931;52.164;5.518;2023-02-02T12:52:49;20.60;63.80
21540;DHT22;10931;52.164;5.518;2023-02-02T12:59:19;20.80;63.70
21540;DHT22;10931;52.164;5.518;2023-02-02T13:08:08;21.10;63.50
21540;DHT22;10931;52.164;5.518;2023-02-02T13:10:51;21.20;63.50
21540;DHT22;10931;52.164;5.518;2023-02-02T13:13:37;21.30;63.50
21540;DHT22;10931;52.164;5.518;2023-02-02T13:16:30;21.30;63.40
21540;DHT22;10931;52.164;5.518;2023-02-02T13:35:16;21.80;63.00
21540;DHT22;10931;52.164;5.518;2023-02-02T13:41:06;22.00;63.00
21540;DHT22;10931;52.164;5.518;2023-02-02T13:46:50;22.10;62.80
21540;DHT22;10931;52.164;5.518;2023-02-02T13:52:49;22.30;62.70
21540;DHT22;10931;52.164;5.518;2023-02-02T13:58:43;22.40;62.50
21540;DHT22;10931;52.164;5.518;2023-02-02T14:01:15;22.40;62.50
21540;DHT22;10931;52.164;5.518;2023-02-02T14:03:44;22.50;62.40
21540;DHT22;10931;52.164;5.518;2023-02-02T14:06:22;22.50;62.30
21540;DHT22;10931;52.164;5.518;2023-02-02T14:08:54;22.60;62.30
21540;DHT22;10931;52.164;5.518;2023-02-02T14:11:39;22.60;62.20
21540;DHT22;10931;52.164;5.518;2023-02-02T14:14:21;22.70;62.20
21540;DHT22;10931;52.164;5.518;2023-02-02T14:19:50;22.80;62.10
21540;DHT22;10931;52.164;5.518;2023-02-02T14:22:19;22.90;62.10
21540;DHT22;10931;52.164;5.518;2023-02-02T14:24:51;22.90;61.90
21540;DHT22;10931;52.164;5.518;2023-02-02T14:27:39;22.90;61.70
21540;DHT22;10931;52.164;5.518;2023-02-02T14:35:58;22.90;61.40
21540;DHT22;10931;52.164;5.518;2023-02-02T14:41:55;22.80;61.30
21540;DHT22;10931;52.164;5.518;2023-02-02T14:50:41;22.80;61.10
21540;DHT22;10931;52.164;5.518;2023-02-02T14:53:30;22.70;61.10
21540;DHT22;10931;52.164;5.518;2023-02-02T14:58:42;22.70;61.00
21540;DHT22;10931;52.164;5.518;2023-02-02T15:07:34;22.60;61.00
21540;DHT22;10931;52.164;5.518;2023-02-02T15:09:49;22.50;61.00
21540;DHT22;10931;52.164;5.518;2023-02-02T15:13:15;22.50;61.10
21540;DHT22;10931;52.164;5.518;2023-02-02T15:16:13;22.50;61.10
21540;DHT22;10931;52.164;5.518;2023-02-02T15:18:57;22.40;61.10
21540;DHT22;10931;52.164;5.518;2023-02-02T15:21:42;22.40;61.20
21540;DHT22;10931;52.164;5.518;2023-02-02T15:24:46;22.40;61.20
21540;DHT22;10931;52.164;5.518;2023-02-02T15:27:36;22.30;61.20
21540;DHT22;10931;52.164;5.518;2023-02-02T15:30:10;22.30;61.30
21540;DHT22;10931;52.164;5.518;2023-02-02T15:32:50;22.30;61.30
21540;DHT22;10931;52.164;5.518;2023-02-02T15:35:23;22.20;61.30
21540;DHT22;10931;52.164;5.518;2023-02-02T15:37:58;22.20;61.40
21540;DHT22;10931;52.164;5.518;2023-02-02T15:40:30;22.20;61.40
21540;DHT22;10931;52.164;5.518;2023-02-02T15:43:05;22.20;61.40
21540;DHT22;10931;52.164;5.518;2023-02-02T15:45:55;22.10;61.40
21540;DHT22;10931;52.164;5.518;2023-02-02T15:48:31;22.10;61.50
21540;DHT22;10931;52.164;5.518;2023-02-02T15:51:01;22.00;61.50
21540;DHT22;10931;52.164;5.518;2023-02-02T15:56:16;22.00;61.60
21540;DHT22;10931;52.164;5.518;2023-02-02T15:58:48;22.00;61.60
21540;DHT22;10931;52.164;5.518;2023-02-02T16:01:22;22.00;61.70
21540;DHT22;10931;52.164;5.518;2023-02-02T16:06:44;22.00;61.80
21540;DHT22;10931;52.164;5.518;2023-02-02T16:09:26;21.90;61.80
21540;DHT22;10931;52.164;5.518;2023-02-02T16:11:55;21.90;61.90
21540;DHT22;10931;52.164;5.518;2023-02-02T16:14:36;21.90;61.90
21540;DHT22;10931;52.164;5.518;2023-02-02T16:17:32;21.90;61.90
21540;DHT22;10931;52.164;5.518;2023-02-02T16:20:13;21.90;61.90
21540;DHT22;10931;52.164;5.518;2023-02-02T16:22:40;21.90;62.00
21540;DHT22;10931;52.164;5.518;2023-02-02T16:25:18;21.90;62.00
21540;DHT22;10931;52.164;5.518;2023-02-02T16:27:50;21.80;62.00
21540;DHT22;10931;52.164;5.518;2023-02-02T16:30:32;21.80;62.00
21540;DHT22;10931;52.164;5.518;2023-02-02T16:38:14;21.80;62.10
21540;DHT22;10931;52.164;5.518;2023-02-02T16:40:27;21.80;62.20
21540;DHT22;10931;52.164;5.518;2023-02-02T16:43:15;21.70;62.10
21540;DHT22;10931;52.164;5.518;2023-02-02T16:45:52;21.70;62.20
21540;DHT22;10931;52.164;5.518;2023-02-02T16:48:31;21.70;62.20
21540;DHT22;10931;52.164;5.518;2023-02-02T16:51:07;21.70;62.20
21540;DHT22;10931;52.164;5.518;2023-02-02T16:53:34;21.60;62.20
21540;DHT22;10931;52.164;5.518;2023-02-02T16:56:07;21.60;62.30
21540;DHT22;10931;52.164;5.518;2023-02-02T16:58:53;21.60;62.30
21540;DHT22;10931;52.164;5.518;2023-02-02T17:01:39;21.60;62.30
21540;DHT22;10931;52.164;5.518;2023-02-02T17:07:12;21.50;62.30
21540;DHT22;10931;52.164;5.518;2023-02-02T17:10:08;21.50;62.40
21540;DHT22;10931;52.164;5.518;2023-02-02T17:12:41;21.50;62.40
21540;DHT22;10931;52.164;5.518;2023-02-02T17:17:55;21.40;62.40
21540;DHT22;10931;52.164;5.518;2023-02-02T17:20:31;21.40;62.50
21540;DHT22;10931;52.164;5.518;2023-02-02T17:23:02;21.40;62.50
21540;DHT22;10931;52.164;5.518;2023-02-02T17:25:36;21.30;62.50
21540;DHT22;10931;52.164;5.518;2023-02-02T17:28:30;21.30;62.60
21540;DHT22;10931;52.164;5.518;2023-02-02T17:30:59;21.30;62.50
21540;DHT22;10931;52.164;5.518;2023-02-02T17:33:28;21.30;62.60
21540;DHT22;10931;52.164;5.518;2023-02-02T17:35:54;21.20;62.50
21540;DHT22;10931;52.164;5.518;2023-02-02T17:38:21;21.20;62.60
21540;DHT22;10931;52.164;5.518;2023-02-02T17:40:54;21.20;62.60
21540;DHT22;10931;52.164;5.518;2023-02-02T17:43:33;21.20;62.60
21540;DHT22;10931;52.164;5.518;2023-02-02T17:46:02;21.20;62.60
21540;DHT22;10931;52.164;5.518;2023-02-02T17:48:33;21.10;62.60
21540;DHT22;10931;52.164;5.518;2023-02-02T17:50:59;21.10;62.60
21540;DHT22;10931;52.164;5.518;2023-02-02T17:57:34;21.10;62.70
21540;DHT22;10931;52.164;5.518;2023-02-02T18:00:04;21.00;62.70
21540;DHT22;10931;52.164;5.518;2023-02-02T18:02:30;21.00;62.70
21540;DHT22;10931;52.164;5.518;2023-02-02T18:04:57;21.00;62.70
21540;DHT22;10931;52.164;5.518;2023-02-02T18:07:26;21.00;62.80
21540;DHT22;10931;52.164;5.518;2023-02-02T18:09:52;21.00;62.80
21540;DHT22;10931;52.164;5.518;2023-02-02T18:12:21;21.00;62.80
21540;DHT22;10931;52.164;5.518;2023-02-02T18:14:47;20.90;62.80
21540;DHT22;10931;52.164;5.518;2023-02-02T18:17:16;20.90;62.80
21540;DHT22;10931;52.164;5.518;2023-02-02T18:19:42;20.90;62.80
21540;DHT22;10931;52.164;5.518;2023-02-02T18:22:16;20.90;62.80
21540;DHT22;10931;52.164;5.518;2023-02-02T18:24:43;20.80;62.80
21540;DHT22;10931;52.164;5.518;2023-02-02T18:27:08;20.80;62.80
21540;DHT22;10931;52.164;5.518;2023-02-02T18:29:34;20.80;62.80
21540;DHT22;10931;52.164;5.518;2023-02-02T18:32:06;20.80;62.80
21540;DHT22;10931;52.164;5.518;2023-02-02T18:34:45;20.80;62.90
21540;DHT22;10931;52.164;5.518;2023-02-02T18:37:25;20.80;62.90
21540;DHT22;10931;52.164;5.518;2023-02-02T18:40:04;20.80;62.90
21540;DHT22;10931;52.164;5.518;2023-02-02T18:42:44;20.70;62.80
21540;DHT22;10931;52.164;5.518;2023-02-02T18:45:13;20.70;62.90
21540;DHT22;10931;52.164;5.518;2023-02-02T18:47:49;20.70;62.90
21540;DHT22;10931;52.164;5.518;2023-02-02T18:50:18;20.70;62.90
21540;DHT22;10931;52.164;5.518;2023-02-02T18:52:46;20.70;62.90
21540;DHT22;10931;52.164;5.518;2023-02-02T18:55:13;20.60;62.90
21540;DHT22;10931;52.164;5.518;2023-02-02T18:57:48;20.60;62.90
21540;DHT22;10931;52.164;5.518;2023-02-02T19:00:26;20.60;62.90
21540;DHT22;10931;52.164;5.518;2023-02-02T19:02:54;20.60;62.90
21540;DHT22;10931;52.164;5.518;2023-02-02T19:05:32;20.60;63.00
21540;DHT22;10931;52.164;5.518;2023-02-02T19:08:20;20.50;62.90
21540;DHT22;10931;52.164;5.518;2023-02-02T19:10:56;20.50;62.90
21540;DHT22;10931;52.164;5.518;2023-02-02T19:13:33;20.50;62.90
21540;DHT22;10931;52.164;5.518;2023-02-02T19:18:50;20.50;63.00
21540;DHT22;10931;52.164;5.518;2023-02-02T19:21:34;20.40;62.90
21540;DHT22;10931;52.164;5.518;2023-02-02T19:24:09;20.40;63.00
21540;DHT22;10931;52.164;5.518;2023-02-02T19:26:49;20.40;63.10
21540;DHT22;10931;52.164;5.518;2023-02-02T19:29:24;20.40;63.10
21540;DHT22;10931;52.164;5.518;2023-02-02T19:32:01;20.40;63.10
21540;DHT22;10931;52.164;5.518;2023-02-02T19:34:32;20.30;63.00
21540;DHT22;10931;52.164;5.518;2023-02-02T19:37:08;20.30;63.00
21540;DHT22;10931;52.164;5.518;2023-02-02T19:39:37;20.30;63.10
21540;DHT22;10931;52.164;5.518;2023-02-02T19:42:12;20.40;63.10
21540;DHT22;10931;52.164;5.518;2023-02-02T19:44:49;20.30;63.10
21540;DHT22;10931;52.164;5.518;2023-02-02T19:47:46;20.30;63.10
21540;DHT22;10931;52.164;5.518;2023-02-02T19:56:36;20.30;63.20
21540;DHT22;10931;52.164;5.518;2023-02-02T19:59:08;20.30;63.20
21540;DHT22;10931;52.164;5.518;2023-02-02T20:01:38;20.20;63.10
21540;DHT22;10931;52.164;5.518;2023-02-02T20:04:40;20.20;63.10
21540;DHT22;10931;52.164;5.518;2023-02-02T20:07:50;20.20;63.20
21540;DHT22;10931;52.164;5.518;2023-02-02T20:10:26;20.20;63.20
21540;DHT22;10931;52.164;5.518;2023-02-02T20:12:52;20.10;63.10
21540;DHT22;10931;52.164;5.518;2023-02-02T20:15:38;20.10;63.20